Time,TemperatureF,DewpointF,PressureIn,WindDirection,WindDirectionDegrees,WindSpeedMPH,WindSpeedGustMPH,Humidity,HourlyPrecipIn,Conditions,Clouds,dailyrainin,SoftwareType,DateUTC
2013-07-02 00:01:00,68.0,43.0,-100.00,NNW,332,0.0,0.0,41,0.00,,,0.00,,2013-07-02 07:01:00,
2013-07-02 00:11:00,68.0,43.0,-100.00,NNW,332,0.0,0.0,41,0.00,,,0.00,,2013-07-02 07:11:00,
2013-07-02 00:22:00,68.0,43.0,-100.00,NNW,332,0.0,0.0,41,0.00,,,0.00,,2013-07-02 07:22:00,
2013-07-02 00:53:00,66.0,43.0,-100.00,NNW,338,0.0,0.0,44,0.00,,,-99.99,,2013-07-02 07:53:00,
2013-07-02 01:12:00,66.0,43.0,-100.00,NNW,338,0.0,0.0,44,0.00,,,-99.99,,2013-07-02 08:12:00,
2013-07-02 01:22:00,66.0,43.0,-100.00,NNW,338,0.0,0.0,44,0.00,,,-99.99,,2013-07-02 08:22:00,
2013-07-02 08:53:00,79.0,47.0,-100.00,SSE,156,0.0,0.0,32,-99.99,,,0.00,,2013-07-02 15:53:00,
2013-07-02 09:01:00,79.0,47.0,-100.00,SSE,156,0.0,0.0,32,-99.99,,,0.00,,2013-07-02 16:01:00,
2013-07-02 09:11:00,79.0,47.0,-100.00,SSE,156,0.0,0.0,32,-99.99,,,0.00,,2013-07-02 16:11:00,
2013-07-02 09:21:00,79.0,47.0,-100.00,SSE,156,0.0,0.0,32,-99.99,,,0.00,,2013-07-02 16:21:00,
2013-07-02 09:52:00,90.0,38.0,-100.00,NW,321,1.0,8.0,16,0.00,,,0.00,,2013-07-02 16:52:00,
2013-07-02 10:02:00,90.0,38.0,-100.00,NW,321,1.0,8.0,16,0.00,,,0.00,,2013-07-02 17:02:00,
2013-07-02 10:11:00,90.0,38.0,-100.00,NW,321,1.0,8.0,16,0.00,,,0.00,,2013-07-02 17:11:00,
2013-07-02 10:22:00,90.0,38.0,-100.00,NW,321,1.0,8.0,16,0.00,,,0.00,,2013-07-02 17:22:00,
2013-07-02 11:22:00,94.0,36.0,-100.00,SW,220,2.0,8.0,13,0.00,,,0.00,,2013-07-02 18:22:00,
2013-07-02 11:53:00,96.0,43.0,-100.00,NW,315,3.0,9.0,16,0.00,,,0.00,,2013-07-02 18:53:00,
2013-07-02 12:01:00,96.0,43.0,-100.00,NW,315,3.0,9.0,16,0.00,,,0.00,,2013-07-02 19:01:00,
2013-07-02 12:11:00,96.0,43.0,-100.00,NW,315,3.0,9.0,16,0.00,,,0.00,,2013-07-02 19:11:00,
2013-07-02 12:22:00,96.0,43.0,-100.00,NW,315,3.0,9.0,16,0.00,,,0.00,,2013-07-02 19:22:00,
2013-07-02 13:11:00,96.0,37.0,-100.00,ENE,62,3.0,12.0,13,0.00,,,0.00,,2013-07-02 20:11:00,
2013-07-02 13:22:00,96.0,37.0,-100.00,ENE,62,3.0,12.0,13,0.00,,,0.00,,2013-07-02 20:22:00,
2013-07-02 13:52:00,92.0,39.0,-100.00,NW,319,5.0,13.0,16,0.00,,,0.00,,2013-07-02 20:52:00,
2013-07-02 14:02:00,92.0,39.0,-100.00,NW,319,5.0,13.0,16,0.00,,,0.00,,2013-07-02 21:02:00,
2013-07-02 14:11:00,92.0,39.0,-100.00,NW,319,5.0,13.0,16,0.00,,,0.00,,2013-07-02 21:11:00,
2013-07-02 14:22:00,92.0,39.0,-100.00,NW,319,5.0,13.0,16,0.00,,,0.00,,2013-07-02 21:22:00,
2013-07-02 15:01:00,95.0,36.0,-100.00,NNE,25,5.0,16.0,13,0.00,,,0.00,,2013-07-02 22:01:00,
2013-07-02 15:11:00,95.0,36.0,-100.00,NNE,25,5.0,16.0,13,0.00,,,0.00,,2013-07-02 22:11:00,
2013-07-02 15:22:00,95.0,36.0,-100.00,NNE,25,5.0,16.0,13,0.00,,,0.00,,2013-07-02 22:22:00,
2013-07-02 15:53:00,96.0,37.0,-100.00,WNW,296,5.0,13.0,13,0.00,,,0.00,,2013-07-02 22:53:00,
2013-07-02 16:01:00,96.0,37.0,-100.00,WNW,296,5.0,13.0,13,0.00,,,0.00,,2013-07-02 23:01:00,
2013-07-02 16:11:00,96.0,37.0,-100.00,WNW,296,5.0,13.0,13,0.00,,,0.00,,2013-07-02 23:11:00,
2013-07-02 16:22:00,96.0,37.0,-100.00,WNW,296,5.0,13.0,13,0.00,,,0.00,,2013-07-02 23:22:00,
2013-07-02 16:52:00,92.0,42.0,-100.00,NNE,29,5.0,14.0,18,0.00,,,0.00,,2013-07-02 23:52:00,
2013-07-02 17:01:00,92.0,42.0,-100.00,NNE,29,5.0,14.0,18,0.00,,,0.00,,2013-07-03 00:01:00,
2013-07-02 17:11:00,92.0,42.0,-100.00,NNE,29,5.0,14.0,18,0.00,,,0.00,,2013-07-03 00:11:00,
2013-07-02 17:22:00,92.0,42.0,-100.00,NNE,29,5.0,14.0,18,0.00,,,0.00,,2013-07-03 00:22:00,
2013-07-02 17:52:00,84.0,46.0,-100.00,WNW,299,3.0,13.0,27,0.00,,,0.00,,2013-07-03 00:52:00,
2013-07-02 18:01:00,84.0,46.0,-100.00,WNW,299,3.0,13.0,27,0.00,,,0.00,,2013-07-03 01:01:00,
2013-07-02 18:11:00,84.0,46.0,-100.00,WNW,299,3.0,13.0,27,0.00,,,0.00,,2013-07-03 01:11:00,
2013-07-02 18:22:00,84.0,46.0,-100.00,WNW,299,3.0,13.0,27,0.00,,,0.00,,2013-07-03 01:22:00,
2013-07-02 18:59:00,80.0,50.0,-100.00,WNW,303,3.0,10.0,35,0.00,,,0.00,,2013-07-03 01:59:00,
2013-07-02 19:02:00,80.0,50.0,-100.00,WNW,303,3.0,10.0,35,0.00,,,0.00,,2013-07-03 02:02:00,
2013-07-02 19:12:00,80.0,50.0,-100.00,WNW,303,3.0,10.0,35,0.00,,,0.00,,2013-07-03 02:12:00,
2013-07-02 19:23:00,80.0,50.0,-100.00,WNW,303,3.0,10.0,35,0.00,,,0.00,,2013-07-03 02:23:00,
2013-07-02 19:58:00,77.0,48.0,-100.00,NNW,333,0.0,9.0,36,0.00,,,0.00,,2013-07-03 02:58:00,
2013-07-02 20:12:00,77.0,48.0,-100.00,NNW,333,0.0,9.0,36,0.00,,,0.00,,2013-07-03 03:12:00,
2013-07-02 20:25:00,77.0,48.0,-100.00,NNW,333,0.0,9.0,36,0.00,,,0.00,,2013-07-03 03:25:00,
2013-07-02 20:58:00,75.0,47.0,-100.00,NNW,348,0.0,6.0,37,0.00,,,0.00,,2013-07-03 03:58:00,
2013-07-02 21:01:00,75.0,47.0,-100.00,NNW,348,0.0,6.0,37,0.00,,,0.00,,2013-07-03 04:01:00,
2013-07-02 21:11:00,75.0,47.0,-100.00,NNW,348,0.0,6.0,37,0.00,,,0.00,,2013-07-03 04:11:00,
2013-07-02 21:22:00,75.0,47.0,-100.00,NNW,348,0.0,6.0,37,0.00,,,0.00,,2013-07-03 04:22:00,
2013-07-02 21:52:00,72.0,45.0,-100.00,South,191,0.0,2.0,38,0.00,,,0.00,,2013-07-03 04:52:00,
2013-07-02 22:01:00,72.0,45.0,-100.00,South,191,0.0,2.0,38,0.00,,,0.00,,2013-07-03 05:01:00,
2013-07-02 22:11:00,72.0,45.0,-100.00,South,191,0.0,2.0,38,0.00,,,0.00,,2013-07-03 05:11:00,
2013-07-02 22:23:00,72.0,45.0,-100.00,South,191,0.0,2.0,38,0.00,,,0.00,,2013-07-03 05:23:00,